sensor_id;sensor_type;location;lat;lon;timestamp;pressure;altitude;pressure_sealevel;temperature;humidity
65557;BME280;52200;53.490;14.376;2023-04-04T00:01:02;103007.97;;;-3.13;82.51
65557;BME280;52200;53.490;14.376;2023-04-04T00:03:27;103019.72;;;-3.11;81.80
65557;BME280;52200;53.490;14.376;2023-04-04T00:05:52;103011.22;;;-3.14;81.65
65557;BME280;52200;53.490;14.376;2023-04-04T00:08:18;103007.97;;;-3.13;81.64
65557;BME280;52200;53.490;14.376;2023-04-04T00:10:43;103009.28;;;-3.18;81.92
65557;BME280;52200;53.490;14.376;2023-04-04T00:13:08;103001.09;;;-3.29;81.31
65557;BME280;52200;53.490;14.376;2023-04-04T00:15:34;102996.84;;;-3.56;82.39
65557;BME280;52200;53.490;14.376;2023-04-04T00:18:01;102999.00;;;-3.60;82.89
65557;BME280;52200;53.490;14.376;2023-04-04T00:20:28;102999.69;;;-3.75;83.37
65557;BME280;52200;53.490;14.376;2023-04-04T00:22:54;102990.16;;;-3.57;83.03
65557;BME280;52200;53.490;14.376;2023-04-04T00:25:19;102986.00;;;-3.44;82.37
65557;BME280;52200;53.490;14.376;2023-04-04T00:27:44;102986.00;;;-3.44;82.31
65557;BME280;52200;53.490;14.376;2023-04-04T00:30:11;102984.66;;;-3.52;82.39
65557;BME280;52200;53.490;14.376;2023-04-04T00:32:37;102978.47;;;-3.46;81.97
65557;BME280;52200;53.490;14.376;2023-04-04T00:35:02;102975.03;;;-3.60;81.68
65557;BME280;52200;53.490;14.376;2023-04-04T00:37:28;102968.34;;;-3.61;82.51
65557;BME280;52200;53.490;14.376;2023-04-04T00:39:53;102967.03;;;-3.56;81.63
65557;BME280;52200;53.490;14.376;2023-04-04T00:42:18;102972.28;;;-3.76;82.09
65557;BME280;52200;53.490;14.376;2023-04-04T00:44:44;102968.16;;;-3.88;82.17
65557;BME280;52200;53.490;14.376;2023-04-04T00:47:09;102957.06;;;-3.93;82.70
65557;BME280;52200;53.490;14.376;2023-04-04T00:49:35;102964.28;;;-3.72;82.12
65557;BME280;52200;53.490;14.376;2023-04-04T00:52:01;102962.53;;;-3.73;81.63
65557;BME280;52200;53.490;14.376;2023-04-04T00:54:28;102955.09;;;-3.73;81.87
65557;BME280;52200;53.490;14.376;2023-04-04T00:56:54;102953.03;;;-3.79;81.71
65557;BME280;52200;53.490;14.376;2023-04-04T00:59:21;102947.13;;;-3.81;81.84
65557;BME280;52200;53.490;14.376;2023-04-04T01:01:47;102963.19;;;-3.88;81.62
65557;BME280;52200;53.490;14.376;2023-04-04T01:04:12;102957.63;;;-3.97;82.20
65557;BME280;52200;53.490;14.376;2023-04-04T01:06:38;102950.50;;;-4.04;81.64
65557;BME280;52200;53.490;14.376;2023-04-04T01:09:03;102952.22;;;-4.15;82.46
65557;BME280;52200;53.490;14.376;2023-04-04T01:11:29;102950.91;;;-3.98;82.63
65557;BME280;52200;53.490;14.376;2023-04-04T01:13:55;102952.84;;;-3.94;81.62
65557;BME280;52200;53.490;14.376;2023-04-04T01:16:20;102946.47;;;-3.90;81.79
65557;BME280;52200;53.490;14.376;2023-04-04T01:18:47;102942.41;;;-3.90;81.54
65557;BME280;52200;53.490;14.376;2023-04-04T01:21:15;102946.72;;;-3.99;82.29
65557;BME280;52200;53.490;14.376;2023-04-04T01:26:15;102956.84;;;-4.19;82.09
65557;BME280;52200;53.490;14.376;2023-04-04T01:28:41;102950.63;;;-4.14;82.38
65557;BME280;52200;53.490;14.376;2023-04-04T01:31:09;102949.31;;;-4.09;81.55
65557;BME280;52200;53.490;14.376;2023-04-04T01:33:39;102941.97;;;-4.19;82.08
65557;BME280;52200;53.490;14.376;2023-04-04T01:36:17;102944.88;;;-4.13;81.34
65557;BME280;52200;53.490;14.376;2023-04-04T01:39:11;102947.06;;;-4.18;82.02
65557;BME280;52200;53.490;14.376;2023-04-04T01:41:39;102949.84;;;-4.13;81.57
65557;BME280;52200;53.490;14.376;2023-04-04T01:44:06;102940.56;;;-4.16;81.82
65557;BME280;52200;53.490;14.376;2023-04-04T01:46:34;102949.75;;;-4.15;81.59
65557;BME280;52200;53.490;14.376;2023-04-04T01:49:01;102945.41;;;-4.53;82.81
65557;BME280;52200;53.490;14.376;2023-04-04T01:51:26;102941.00;;;-4.33;82.33
65557;BME280;52200;53.490;14.376;2023-04-04T01:53:53;102942.19;;;-4.16;82.42
65557;BME280;52200;53.490;14.376;2023-04-04T01:56:18;102939.63;;;-4.18;81.27
65557;BME280;52200;53.490;14.376;2023-04-04T01:58:44;102938.53;;;-4.22;82.00
65557;BME280;52200;53.490;14.376;2023-04-04T02:01:09;102940.34;;;-4.07;82.10
65557;BME280;52200;53.490;14.376;2023-04-04T02:03:34;102937.53;;;-4.00;81.87
65557;BME280;52200;53.490;14.376;2023-04-04T02:06:00;102928.72;;;-4.20;82.28
65557;BME280;52200;53.490;14.376;2023-04-04T02:08:25;102930.44;;;-4.31;82.27
65557;BME280;52200;53.490;14.376;2023-04-04T02:10:50;102930.41;;;-4.07;82.40
65557;BME280;52200;53.490;14.376;2023-04-04T02:13:16;102927.06;;;-4.08;82.62
65557;BME280;52200;53.490;14.376;2023-04-04T02:15:42;102924.78;;;-3.93;82.34
65557;BME280;52200;53.490;14.376;2023-04-04T02:18:07;102922.72;;;-3.86;81.85
65557;BME280;52200;53.490;14.376;2023-04-04T02:20:33;102920.78;;;-3.91;81.77
65557;BME280;52200;53.490;14.376;2023-04-04T02:22:58;102916.03;;;-3.88;81.72
65557;BME280;52200;53.490;14.376;2023-04-04T02:25:24;102927.19;;;-4.06;82.16
65557;BME280;52200;53.490;14.376;2023-04-04T02:27:49;102918.22;;;-4.04;81.88
65557;BME280;52200;53.490;14.376;2023-04-04T02:30:15;102914.09;;;-4.03;81.75
65557;BME280;52200;53.490;14.376;2023-04-04T02:32:41;102910.13;;;-4.13;82.41
65557;BME280;52200;53.490;14.376;2023-04-04T02:35:07;102910.34;;;-4.10;82.39
65557;BME280;52200;53.490;14.376;2023-04-04T02:37:32;102914.44;;;-3.99;82.38
65557;BME280;52200;53.490;14.376;2023-04-04T02:39:58;102918.53;;;-3.99;81.86
65557;BME280;52200;53.490;14.376;2023-04-04T02:42:23;102912.94;;;-3.97;81.84
65557;BME280;52200;53.490;14.376;2023-04-04T02:44:48;102913.59;;;-4.11;82.48
65557;BME280;52200;53.490;14.376;2023-04-04T02:47:14;102907.53;;;-4.03;82.13
65557;BME280;52200;53.490;14.376;2023-04-04T02:49:39;102897.38;;;-4.06;81.60
65557;BME280;52200;53.490;14.376;2023-04-04T02:52:04;102909.94;;;-4.05;81.23
65557;BME280;52200;53.490;14.376;2023-04-04T02:54:30;102907.88;;;-4.10;81.10
65557;BME280;52200;53.490;14.376;2023-04-04T02:56:55;102904.00;;;-4.42;81.73
65557;BME280;52200;53.490;14.376;2023-04-04T02:59:21;102906.91;;;-4.36;82.52
65557;BME280;52200;53.490;14.376;2023-04-04T03:01:46;102907.03;;;-4.23;81.80
65557;BME280;52200;53.490;14.376;2023-04-04T03:04:12;102905.53;;;-4.21;81.57
65557;BME280;52200;53.490;14.376;2023-04-04T03:06:38;102908.84;;;-4.32;81.87
65557;BME280;52200;53.490;14.376;2023-04-04T03:09:04;102906.91;;;-4.36;81.44
65557;BME280;52200;53.490;14.376;2023-04-04T03:11:30;102900.47;;;-4.34;81.57
65557;BME280;52200;53.490;14.376;2023-04-04T03:13:56;102906.28;;;-4.45;82.10
65557;BME280;52200;53.490;14.376;2023-04-04T03:16:21;102890.53;;;-4.46;81.91
65557;BME280;52200;53.490;14.376;2023-04-04T03:18:47;102896.38;;;-4.45;81.38
65557;BME280;52200;53.490;14.376;2023-04-04T03:21:13;102896.13;;;-4.72;81.81
65557;BME280;52200;53.490;14.376;2023-04-04T03:23:38;102883.28;;;-4.78;82.75
65557;BME280;52200;53.490;14.376;2023-04-04T03:26:03;102893.53;;;-4.62;82.02
65557;BME280;52200;53.490;14.376;2023-04-04T03:28:29;102889.22;;;-4.64;82.13
65557;BME280;52200;53.490;14.376;2023-04-04T03:30:54;102885.34;;;-4.61;81.67
65557;BME280;52200;53.490;14.376;2023-04-04T03:33:20;102889.66;;;-4.70;82.39
65557;BME280;52200;53.490;14.376;2023-04-04T03:35:46;102881.78;;;-4.76;82.25
65557;BME280;52200;53.490;14.376;2023-04-04T03:38:12;102886.66;;;-4.66;82.31
65557;BME280;52200;53.490;14.376;2023-04-04T03:40:38;102880.06;;;-4.65;82.06
65557;BME280;52200;53.490;14.376;2023-04-04T03:43:07;102877.38;;;-4.68;81.42
65557;BME280;52200;53.490;14.376;2023-04-04T03:45:33;102880.78;;;-4.90;82.22
65557;BME280;52200;53.490;14.376;2023-04-04T03:48:00;102880.97;;;-4.99;82.64
65557;BME280;52200;53.490;14.376;2023-04-04T03:50:26;102872.63;;;-4.77;82.07
65557;BME280;52200;53.490;14.376;2023-04-04T03:52:51;102877.34;;;-4.80;81.78
65557;BME280;52200;53.490;14.376;2023-04-04T03:55:16;102874.13;;;-4.91;82.53
65557;BME280;52200;53.490;14.376;2023-04-04T03:57:42;102868.72;;;-4.86;82.72
65557;BME280;52200;53.490;14.376;2023-04-04T04:00:08;102871.53;;;-4.81;82.68
65557;BME280;52200;53.490;14.376;2023-04-04T04:02:33;102866.34;;;-4.96;83.16
65557;BME280;52200;53.490;14.376;2023-04-04T04:04:58;102862.91;;;-4.74;82.94
65557;BME280;52200;53.490;14.376;2023-04-04T04:07:24;102856.78;;;-4.56;82.01
65557;BME280;52200;53.490;14.376;2023-04-04T04:09:49;102858.84;;;-4.74;82.23
65557;BME280;52200;53.490;14.376;2023-04-04T04:12:15;102850.31;;;-4.54;82.06
65557;BME280;52200;53.490;14.376;2023-04-04T04:14:40;102860.09;;;-4.43;81.63
65557;BME280;52200;53.490;14.376;2023-04-04T04:17:06;102853.31;;;-4.46;82.29
65557;BME280;52200;53.490;14.376;2023-04-04T04:19:31;102850.63;;;-4.49;81.80
65557;BME280;52200;53.490;14.376;2023-04-04T04:21:58;102845.22;;;-4.43;81.91
65557;BME280;52200;53.490;14.376;2023-04-04T04:24:23;102848.03;;;-4.50;81.80
65557;BME280;52200;53.490;14.376;2023-04-04T04:26:49;102843.75;;;-4.65;82.48
65557;BME280;52200;53.490;14.376;2023-04-04T04:29:14;102840.81;;;-4.47;82.20
65557;BME280;52200;53.490;14.376;2023-04-04T04:31:40;102835.09;;;-4.46;81.42
65557;BME280;52200;53.490;14.376;2023-04-04T04:34:06;102836.03;;;-4.44;81.56
65557;BME280;52200;53.490;14.376;2023-04-04T04:36:33;102838.97;;;-4.62;81.22
65557;BME280;52200;53.490;14.376;2023-04-04T04:38:58;102846.66;;;-4.59;81.52
65557;BME280;52200;53.490;14.376;2023-04-04T04:41:23;102841.47;;;-4.74;82.38
65557;BME280;52200;53.490;14.376;2023-04-04T04:43:49;102835.09;;;-4.46;81.92
65557;BME280;52200;53.490;14.376;2023-04-04T04:46:15;102834.00;;;-4.38;81.06
65557;BME280;52200;53.490;14.376;2023-04-04T04:48:40;102839.97;;;-4.48;82.05
65557;BME280;52200;53.490;14.376;2023-04-04T04:51:05;102835.19;;;-4.57;81.32
65557;BME280;52200;53.490;14.376;2023-04-04T04:53:31;102828.44;;;-4.71;82.63
65557;BME280;52200;53.490;14.376;2023-04-04T04:55:56;102828.19;;;-4.39;81.75
65557;BME280;52200;53.490;14.376;2023-04-04T04:58:22;102826.91;;;-4.45;82.03
65557;BME280;52200;53.490;14.376;2023-04-04T05:00:48;102827.84;;;-4.43;82.05
65557;BME280;52200;53.490;14.376;2023-04-04T05:03:14;102824.28;;;-4.23;81.59
65557;BME280;52200;53.490;14.376;2023-04-04T05:05:41;102829.84;;;-4.14;81.21
65557;BME280;52200;53.490;14.376;2023-04-04T05:08:06;102836.09;;;-4.07;80.85
65557;BME280;52200;53.490;14.376;2023-04-04T05:10:32;102832.44;;;-4.12;81.25
65557;BME280;52200;53.490;14.376;2023-04-04T05:12:57;102831.91;;;-4.08;80.98
65557;BME280;52200;53.490;14.376;2023-04-04T05:15:23;102834.00;;;-3.89;80.96
65557;BME280;52200;53.490;14.376;2023-04-04T05:17:50;102840.47;;;-3.91;80.74
65557;BME280;52200;53.490;14.376;2023-04-04T05:20:15;102832.75;;;-3.70;81.22
65557;BME280;52200;53.490;14.376;2023-04-04T05:22:42;102834.22;;;-3.61;81.19
65557;BME280;52200;53.490;14.376;2023-04-04T05:25:08;102838.47;;;-3.46;80.66
65557;BME280;52200;53.490;14.376;2023-04-04T05:27:34;102837.31;;;-3.38;80.74
65557;BME280;52200;53.490;14.376;2023-04-04T05:29:59;102831.16;;;-3.31;80.63
65557;BME280;52200;53.490;14.376;2023-04-04T05:32:24;102841.56;;;-3.24;80.53
65557;BME280;52200;53.490;14.376;2023-04-04T05:34:50;102837.75;;;-3.18;80.87
65557;BME280;52200;53.490;14.376;2023-04-04T05:37:15;102842.47;;;-3.10;81.03
65557;BME280;52200;53.490;14.376;2023-04-04T05:39:41;102838.94;;;-3.00;80.91
65557;BME280;52200;53.490;14.376;2023-04-04T05:42:06;102828.63;;;-2.93;80.78
65557;BME280;52200;53.490;14.376;2023-04-04T05:44:32;102834.06;;;-2.85;80.63
65557;BME280;52200;53.490;14.376;2023-04-04T05:46:57;102837.44;;;-2.71;80.51
65557;BME280;52200;53.490;14.376;2023-04-04T05:49:22;102833.03;;;-2.62;81.16
65557;BME280;52200;53.490;14.376;2023-04-04T05:51:48;102838.75;;;-2.49;81.96
65557;BME280;52200;53.490;14.376;2023-04-04T05:54:13;102840.00;;;-2.42;82.63
65557;BME280;52200;53.490;14.376;2023-04-04T05:56:38;102835.66;;;-2.32;82.61
65557;BME280;52200;53.490;14.376;2023-04-04T05:59:04;102833.06;;;-2.20;83.05
65557;BME280;52200;53.490;14.376;2023-04-04T06:01:29;102834.84;;;-2.04;82.99
65557;BME280;52200;53.490;14.376;2023-04-04T06:03:55;102836.34;;;-1.92;83.04
65557;BME280;52200;53.490;14.376;2023-04-04T06:06:20;102831.88;;;-1.83;83.94
65557;BME280;52200;53.490;14.376;2023-04-04T06:08:46;102832.03;;;-1.67;83.94
65557;BME280;52200;53.490;14.376;2023-04-04T06:11:11;102830.03;;;-1.57;84.01
65557;BME280;52200;53.490;14.376;2023-04-04T06:13:36;102829.72;;;-1.49;83.66
65557;BME280;52200;53.490;14.376;2023-04-04T06:16:02;102829.72;;;-1.34;84.45
65557;BME280;52200;53.490;14.376;2023-04-04T06:18:27;102831.78;;;-1.11;84.80
65557;BME280;52200;53.490;14.376;2023-04-04T06:20:52;102832.31;;;-1.02;84.82
65557;BME280;52200;53.490;14.376;2023-04-04T06:23:18;102837.13;;;-0.90;85.38
65557;BME280;52200;53.490;14.376;2023-04-04T06:25:43;102835.06;;;-0.98;86.40
65557;BME280;52200;53.490;14.376;2023-04-04T06:28:08;102835.88;;;-0.67;85.96
65557;BME280;52200;53.490;14.376;2023-04-04T06:30:36;102832.16;;;-0.59;85.75
65557;BME280;52200;53.490;14.376;2023-04-04T06:33:04;102832.09;;;-0.60;86.46
65557;BME280;52200;53.490;14.376;2023-04-04T06:35:30;102827.16;;;-0.59;87.41
65557;BME280;52200;53.490;14.376;2023-04-04T06:37:55;102831.78;;;-0.50;87.88
65557;BME280;52200;53.490;14.376;2023-04-04T06:40:21;102820.00;;;-0.05;86.27
65557;BME280;52200;53.490;14.376;2023-04-04T06:42:50;102818.19;;;0.09;85.09
65557;BME280;52200;53.490;14.376;2023-04-04T06:45:16;102820.59;;;-0.09;85.62
65557;BME280;52200;53.490;14.376;2023-04-04T06:47:42;102824.97;;;0.12;85.68
65557;BME280;52200;53.490;14.376;2023-04-04T06:50:08;102817.78;;;-0.15;86.11
65557;BME280;52200;53.490;14.376;2023-04-04T06:52:34;102817.25;;;0.24;85.56
65557;BME280;52200;53.490;14.376;2023-04-04T06:54:59;102810.13;;;0.31;84.86
65557;BME280;52200;53.490;14.376;2023-04-04T06:57:25;102807.75;;;0.51;84.31
65557;BME280;52200;53.490;14.376;2023-04-04T06:59:51;102805.50;;;0.56;83.98
65557;BME280;52200;53.490;14.376;2023-04-04T07:02:16;102810.22;;;0.68;83.55
65557;BME280;52200;53.490;14.376;2023-04-04T07:04:41;102816.56;;;0.79;83.43
65557;BME280;52200;53.490;14.376;2023-04-04T07:07:07;102808.19;;;1.13;82.41
65557;BME280;52200;53.490;14.376;2023-04-04T07:09:32;102808.22;;;1.33;81.13
65557;BME280;52200;53.490;14.376;2023-04-04T07:11:57;102814.19;;;1.54;80.51
65557;BME280;52200;53.490;14.376;2023-04-04T07:14:23;102813.44;;;1.75;79.59
65557;BME280;52200;53.490;14.376;2023-04-04T07:16:50;102813.81;;;1.84;78.79
65557;BME280;52200;53.490;14.376;2023-04-04T07:19:15;102810.78;;;1.91;77.18
65557;BME280;52200;53.490;14.376;2023-04-04T07:21:41;102815.53;;;1.85;77.43
65557;BME280;52200;53.490;14.376;2023-04-04T07:24:06;102821.88;;;2.16;76.70
65557;BME280;52200;53.490;14.376;2023-04-04T07:26:32;102810.88;;;2.34;74.95
65557;BME280;52200;53.490;14.376;2023-04-04T07:28:59;102806.81;;;2.36;74.61
65557;BME280;52200;53.490;14.376;2023-04-04T07:31:24;102806.38;;;2.46;73.40
65557;BME280;52200;53.490;14.376;2023-04-04T07:33:50;102808.47;;;2.56;72.14
65557;BME280;52200;53.490;14.376;2023-04-04T07:36:18;102802.97;;;2.65;72.16
65557;BME280;52200;53.490;14.376;2023-04-04T07:38:43;102799.03;;;2.72;71.07
65557;BME280;52200;53.490;14.376;2023-04-04T07:41:08;102793.84;;;2.88;70.87
65557;BME280;52200;53.490;14.376;2023-04-04T07:43:36;102799.41;;;2.81;70.59
65557;BME280;52200;53.490;14.376;2023-04-04T07:46:01;102790.78;;;3.18;70.33
65557;BME280;52200;53.490;14.376;2023-04-04T07:48:27;102786.09;;;3.28;69.52
65557;BME280;52200;53.490;14.376;2023-04-04T07:50:52;102787.47;;;3.19;69.81
65557;BME280;52200;53.490;14.376;2023-04-04T07:53:17;102783.72;;;3.31;68.28
65557;BME280;52200;53.490;14.376;2023-04-04T07:55:43;102787.25;;;3.13;68.47
65557;BME280;52200;53.490;14.376;2023-04-04T07:58:08;102779.34;;;3.27;66.98
65557;BME280;52200;53.490;14.376;2023-04-04T08:00:33;102787.00;;;3.52;66.67
65557;BME280;52200;53.490;14.376;2023-04-04T08:02:59;102784.81;;;3.62;66.95
65557;BME280;52200;53.490;14.376;2023-04-04T08:05:25;102786.16;;;3.76;64.34
65557;BME280;52200;53.490;14.376;2023-04-04T08:07:51;102780.19;;;3.73;63.67
65557;BME280;52200;53.490;14.376;2023-04-04T08:10:16;102775.59;;;4.11;63.33
65557;BME280;52200;53.490;14.376;2023-04-04T08:12:43;102777.06;;;4.30;62.94
65557;BME280;52200;53.490;14.376;2023-04-04T08:15:09;102769.72;;;4.10;61.97
65557;BME280;52200;53.490;14.376;2023-04-04T08:17:35;102771.69;;;3.95;62.15
65557;BME280;52200;53.490;14.376;2023-04-04T08:20:02;102767.91;;;4.06;60.63
65557;BME280;52200;53.490;14.376;2023-04-04T08:22:28;102773.81;;;4.08;59.12
65557;BME280;52200;53.490;14.376;2023-04-04T08:24:53;102770.31;;;4.03;58.76
65557;BME280;52200;53.490;14.376;2023-04-04T08:27:19;102773.78;;;4.32;58.42
65557;BME280;52200;53.490;14.376;2023-04-04T08:29:45;102780.38;;;4.82;59.15
65557;BME280;52200;53.490;14.376;2023-04-04T08:32:12;102774.72;;;4.62;57.93
65557;BME280;52200;53.490;14.376;2023-04-04T08:34:38;102771.41;;;4.90;57.60
65557;BME280;52200;53.490;14.376;2023-04-04T08:37:04;102774.69;;;5.77;56.02
65557;BME280;52200;53.490;14.376;2023-04-04T08:39:30;102778.81;;;6.41;56.14
65557;BME280;52200;53.490;14.376;2023-04-04T08:42:03;102759.44;;;6.76;55.50
65557;BME280;52200;53.490;14.376;2023-04-04T08:44:30;102774.16;;;5.89;56.36
65557;BME280;52200;53.490;14.376;2023-04-04T08:46:59;102776.25;;;5.74;56.64
65557;BME280;52200;53.490;14.376;2023-04-04T08:49:26;102770.47;;;5.46;56.67
65557;BME280;52200;53.490;14.376;2023-04-04T08:51:54;102766.56;;;4.96;56.76
65557;BME280;52200;53.490;14.376;2023-04-04T08:54:21;102757.13;;;5.20;59.74
65557;BME280;52200;53.490;14.376;2023-04-04T08:56:47;102763.97;;;5.54;56.26
65557;BME280;52200;53.490;14.376;2023-04-04T08:59:12;102756.94;;;6.06;56.18
65557;BME280;52200;53.490;14.376;2023-04-04T09:01:43;102751.84;;;6.75;54.59
65557;BME280;52200;53.490;14.376;2023-04-04T09:04:09;102742.50;;;5.99;53.98
65557;BME280;52200;53.490;14.376;2023-04-04T09:06:35;102740.78;;;5.68;54.39
65557;BME280;52200;53.490;14.376;2023-04-04T09:09:02;102747.22;;;5.26;55.35
65557;BME280;52200;53.490;14.376;2023-04-04T09:11:30;102744.59;;;5.21;54.39
65557;BME280;52200;53.490;14.376;2023-04-04T09:13:59;102752.28;;;5.56;54.63
65557;BME280;52200;53.490;14.376;2023-04-04T09:16:28;102746.16;;;5.80;55.42
65557;BME280;52200;53.490;14.376;2023-04-04T09:18:54;102743.56;;;6.44;53.92
65557;BME280;52200;53.490;14.376;2023-04-04T09:21:20;102737.38;;;6.69;52.85
65557;BME280;52200;53.490;14.376;2023-04-04T09:23:45;102741.72;;;6.02;52.27
65557;BME280;52200;53.490;14.376;2023-04-04T09:26:10;102736.81;;;5.44;53.59
65557;BME280;52200;53.490;14.376;2023-04-04T09:28:41;102740.50;;;5.25;54.69
65557;BME280;52200;53.490;14.376;2023-04-04T09:31:07;102742.38;;;5.96;52.32
65557;BME280;52200;53.490;14.376;2023-04-04T09:33:34;102737.38;;;6.69;51.76
65557;BME280;52200;53.490;14.376;2023-04-04T09:36:07;102740.81;;;6.71;51.61
65557;BME280;52200;53.490;14.376;2023-04-04T09:38:39;102740.66;;;6.28;51.77
65557;BME280;52200;53.490;14.376;2023-04-04T09:41:07;102740.38;;;6.16;52.16
65557;BME280;52200;53.490;14.376;2023-04-04T09:43:35;102736.44;;;6.64;52.79
65557;BME280;52200;53.490;14.376;2023-04-04T09:46:02;102730.16;;;6.85;51.77
65557;BME280;52200;53.490;14.376;2023-04-04T09:48:32;102725.63;;;7.54;50.68
65557;BME280;52200;53.490;14.376;2023-04-04T09:50:59;102719.19;;;7.71;49.98
65557;BME280;52200;53.490;14.376;2023-04-04T09:53:24;102717.66;;;7.80;50.45
65557;BME280;52200;53.490;14.376;2023-04-04T09:55:52;102716.16;;;6.99;50.98
65557;BME280;52200;53.490;14.376;2023-04-04T09:58:28;102710.38;;;6.67;50.78
65557;BME280;52200;53.490;14.376;2023-04-04T10:00:56;102705.97;;;6.56;52.29
65557;BME280;52200;53.490;14.376;2023-04-04T10:03:23;102709.06;;;6.44;52.58
65557;BME280;52200;53.490;14.376;2023-04-04T10:05:58;102710.28;;;6.24;52.90
65557;BME280;52200;53.490;14.376;2023-04-04T10:08:26;102710.72;;;5.75;53.45
65557;BME280;52200;53.490;14.376;2023-04-04T10:10:59;102712.31;;;6.04;52.92
65557;BME280;52200;53.490;14.376;2023-04-04T10:13:26;102698.69;;;6.70;52.76
65557;BME280;52200;53.490;14.376;2023-04-04T10:15:56;102698.97;;;7.25;51.08
65557;BME280;52200;53.490;14.376;2023-04-04T10:18:26;102694.56;;;6.75;51.26
65557;BME280;52200;53.490;14.376;2023-04-04T10:20:53;102699.78;;;6.43;52.66
65557;BME280;52200;53.490;14.376;2023-04-04T10:23:21;102689.66;;;6.43;51.39
65557;BME280;52200;53.490;14.376;2023-04-04T10:25:51;102692.75;;;6.68;50.63
65557;BME280;52200;53.490;14.376;2023-04-04T10:28:17;102690.22;;;7.09;52.00
65557;BME280;52200;53.490;14.376;2023-04-04T10:30:51;102682.28;;;7.35;51.40
65557;BME280;52200;53.490;14.376;2023-04-04T10:33:31;102679.78;;;6.92;52.24
65557;BME280;52200;53.490;14.376;2023-04-04T10:36:02;102687.00;;;6.75;53.40
65557;BME280;52200;53.490;14.376;2023-04-04T10:38:39;102677.13;;;6.47;52.46
65557;BME280;52200;53.490;14.376;2023-04-04T10:41:06;102670.59;;;6.55;52.28
65557;BME280;52200;53.490;14.376;2023-04-04T10:43:33;102666.91;;;6.40;53.40
65557;BME280;52200;53.490;14.376;2023-04-04T10:46:07;102672.91;;;6.45;52.30
65557;BME280;52200;53.490;14.376;2023-04-04T10:48:35;102668.63;;;6.06;52.95
65557;BME280;52200;53.490;14.376;2023-04-04T10:51:01;102664.81;;;5.54;53.63
65557;BME280;52200;53.490;14.376;2023-04-04T10:53:28;102660.28;;;5.75;55.02
65557;BME280;52200;53.490;14.376;2023-04-04T10:55:53;102646.97;;;6.15;55.32
65557;BME280;52200;53.490;14.376;2023-04-04T10:58:20;102647.38;;;6.73;53.85
65557;BME280;52200;53.490;14.376;2023-04-04T11:00:54;102640.81;;;7.24;53.46
65557;BME280;52200;53.490;14.376;2023-04-04T11:03:20;102642.38;;;7.19;52.22
65557;BME280;52200;53.490;14.376;2023-04-04T11:05:46;102640.84;;;6.41;51.41
65557;BME280;52200;53.490;14.376;2023-04-04T11:08:21;102641.13;;;6.17;51.27
65557;BME280;52200;53.490;14.376;2023-04-04T11:10:50;102635.25;;;6.17;52.54
65557;BME280;52200;53.490;14.376;2023-04-04T11:13:19;102633.00;;;6.70;51.97
65557;BME280;52200;53.490;14.376;2023-04-04T11:15:52;102633.28;;;7.29;50.73
65557;BME280;52200;53.490;14.376;2023-04-04T11:18:20;102629.69;;;8.20;49.90
65557;BME280;52200;53.490;14.376;2023-04-04T11:20:46;102629.84;;;8.31;48.37
65557;BME280;52200;53.490;14.376;2023-04-04T11:23:17;102626.06;;;7.49;48.11
65557;BME280;52200;53.490;14.376;2023-04-04T11:28:27;102630.97;;;6.52;50.62
65557;BME280;52200;53.490;14.376;2023-04-04T11:34:03;102620.78;;;6.48;52.21
65557;BME280;52200;53.490;14.376;2023-04-04T11:39:31;102616.72;;;6.97;49.12
65557;BME280;52200;53.490;14.376;2023-04-04T11:42:11;102600.56;;;7.36;48.82
65557;BME280;52200;53.490;14.376;2023-04-04T11:47:18;102591.59;;;7.55;47.88
65557;BME280;52200;53.490;14.376;2023-04-04T11:49:45;102600.38;;;7.76;47.09
65557;BME280;52200;53.490;14.376;2023-04-04T11:52:15;102606.16;;;7.70;46.91
65557;BME280;52200;53.490;14.376;2023-04-04T11:54:46;102603.69;;;7.23;48.39
65557;BME280;52200;53.490;14.376;2023-04-04T11:57:16;102587.44;;;7.08;47.16
65557;BME280;52200;53.490;14.376;2023-04-04T11:59:43;102592.72;;;7.22;47.62
65557;BME280;52200;53.490;14.376;2023-04-04T12:02:10;102589.38;;;7.25;46.83
65557;BME280;52200;53.490;14.376;2023-04-04T12:04:37;102585.44;;;7.39;46.84
65557;BME280;52200;53.490;14.376;2023-04-04T12:07:05;102594.41;;;7.22;46.02
65557;BME280;52200;53.490;14.376;2023-04-04T12:09:32;102587.38;;;7.05;47.31
65557;BME280;52200;53.490;14.376;2023-04-04T12:11:58;102592.50;;;7.10;46.58
65557;BME280;52200;53.490;14.376;2023-04-04T12:14:24;102578.56;;;7.32;48.49
65557;BME280;52200;53.490;14.376;2023-04-04T12:16:52;102573.69;;;7.43;48.11
65557;BME280;52200;53.490;14.376;2023-04-04T12:19:18;102569.19;;;7.79;48.05
65557;BME280;52200;53.490;14.376;2023-04-04T12:21:48;102570.41;;;8.05;46.55
65557;BME280;52200;53.490;14.376;2023-04-04T12:24:14;102564.63;;;8.14;46.73
65557;BME280;52200;53.490;14.376;2023-04-04T12:26:41;102569.97;;;8.36;47.10
65557;BME280;52200;53.490;14.376;2023-04-04T12:29:11;102566.09;;;7.98;47.34
65557;BME280;52200;53.490;14.376;2023-04-04T12:31:39;102555.28;;;7.52;48.64
65557;BME280;52200;53.490;14.376;2023-04-04T12:34:05;102564.59;;;7.54;48.97
65557;BME280;52200;53.490;14.376;2023-04-04T12:36:35;102555.25;;;7.49;49.95
65557;BME280;52200;53.490;14.376;2023-04-04T12:39:06;102561.66;;;7.28;50.52
65557;BME280;52200;53.490;14.376;2023-04-04T12:41:33;102550.47;;;7.15;48.22
65557;BME280;52200;53.490;14.376;2023-04-04T12:46:27;102550.81;;;6.88;48.28
65557;BME280;52200;53.490;14.376;2023-04-04T12:48:53;102549.97;;;6.87;48.08
65557;BME280;52200;53.490;14.376;2023-04-04T12:51:19;102541.47;;;6.82;47.06
65557;BME280;52200;53.490;14.376;2023-04-04T12:53:51;102532.50;;;7.49;44.82
65557;BME280;52200;53.490;14.376;2023-04-04T12:56:24;102530.59;;;7.92;43.31
65557;BME280;52200;53.490;14.376;2023-04-04T12:58:50;102521.00;;;8.35;43.14